sensor_id;sensor_type;location;lat;lon;timestamp;temperature;humidity
16995;DHT22;8614;48.522;9.206;2024-02-04T00:01:32;7.90;99.90
16995;DHT22;8614;48.522;9.206;2024-02-04T00:03:59;7.80;99.90
16995;DHT22;8614;48.522;9.206;2024-02-04T00:06:26;7.90;99.90
16995;DHT22;8614;48.522;9.206;2024-02-04T00:08:52;7.80;99.90
16995;DHT22;8614;48.522;9.206;2024-02-04T00:11:19;7.80;99.90
16995;DHT22;8614;48.522;9.206;2024-02-04T00:13:46;7.80;99.90
16995;DHT22;8614;48.522;9.206;2024-02-04T00:16:13;7.80;99.90
16995;DHT22;8614;48.522;9.206;2024-02-04T00:18:41;7.80;99.90
16995;DHT22;8614;48.522;9.206;2024-02-04T00:21:08;7.80;99.90
16995;DHT22;8614;48.522;9.206;2024-02-04T00:23:35;7.80;99.90
16995;DHT22;8614;48.522;9.206;2024-02-04T00:26:02;7.90;99.90
16995;DHT22;8614;48.522;9.206;2024-02-04T00:28:29;7.90;99.90
16995;DHT22;8614;48.522;9.206;2024-02-04T00:30:56;7.90;99.90
16995;DHT22;8614;48.522;9.206;2024-02-04T00:33:24;7.80;99.90
16995;DHT22;8614;48.522;9.206;2024-02-04T00:35:52;7.80;99.90
16995;DHT22;8614;48.522;9.206;2024-02-04T00:38:19;7.90;99.90
16995;DHT22;8614;48.522;9.206;2024-02-04T00:40:46;7.90;99.90
16995;DHT22;8614;48.522;9.206;2024-02-04T00:43:12;7.80;99.90
16995;DHT22;8614;48.522;9.206;2024-02-04T00:45:39;7.80;99.90
16995;DHT22;8614;48.522;9.206;2024-02-04T00:48:06;7.80;99.90
16995;DHT22;8614;48.522;9.206;2024-02-04T00:50:33;7.80;99.90
16995;DHT22;8614;48.522;9.206;2024-02-04T00:53:01;7.80;99.90
16995;DHT22;8614;48.522;9.206;2024-02-04T00:55:28;7.80;99.90
16995;DHT22;8614;48.522;9.206;2024-02-04T00:57:55;7.80;99.90
16995;DHT22;8614;48.522;9.206;2024-02-04T01:00:24;7.80;99.90
16995;DHT22;8614;48.522;9.206;2024-02-04T01:02:51;7.80;99.90
16995;DHT22;8614;48.522;9.206;2024-02-04T01:05:18;7.70;99.90
16995;DHT22;8614;48.522;9.206;2024-02-04T01:07:45;7.70;99.90
16995;DHT22;8614;48.522;9.206;2024-02-04T01:10:13;7.80;99.90
16995;DHT22;8614;48.522;9.206;2024-02-04T01:12:40;7.80;99.90
16995;DHT22;8614;48.522;9.206;2024-02-04T01:15:07;7.70;99.90
16995;DHT22;8614;48.522;9.206;2024-02-04T01:17:34;7.70;99.90
16995;DHT22;8614;48.522;9.206;2024-02-04T01:20:01;7.80;99.90
16995;DHT22;8614;48.522;9.206;2024-02-04T01:22:28;7.70;99.90
16995;DHT22;8614;48.522;9.206;2024-02-04T01:24:55;7.70;99.90
16995;DHT22;8614;48.522;9.206;2024-02-04T01:27:23;7.70;99.90
16995;DHT22;8614;48.522;9.206;2024-02-04T01:29:51;7.70;99.90
16995;DHT22;8614;48.522;9.206;2024-02-04T01:32:19;7.70;99.90
16995;DHT22;8614;48.522;9.206;2024-02-04T01:34:45;7.60;99.90
16995;DHT22;8614;48.522;9.206;2024-02-04T01:37:12;7.60;99.90
16995;DHT22;8614;48.522;9.206;2024-02-04T01:39:39;7.50;99.90
16995;DHT22;8614;48.522;9.206;2024-02-04T01:42:06;7.40;99.90
16995;DHT22;8614;48.522;9.206;2024-02-04T01:44:34;7.40;99.90
16995;DHT22;8614;48.522;9.206;2024-02-04T01:47:01;7.30;99.90
16995;DHT22;8614;48.522;9.206;2024-02-04T01:49:29;7.30;99.90
16995;DHT22;8614;48.522;9.206;2024-02-04T01:51:56;7.20;99.90
16995;DHT22;8614;48.522;9.206;2024-02-04T01:54:25;7.20;99.90
16995;DHT22;8614;48.522;9.206;2024-02-04T01:56:52;7.20;99.90
16995;DHT22;8614;48.522;9.206;2024-02-04T01:59:20;7.20;99.90
16995;DHT22;8614;48.522;9.206;2024-02-04T02:01:50;7.10;99.90
16995;DHT22;8614;48.522;9.206;2024-02-04T02:04:16;7.10;99.90
16995;DHT22;8614;48.522;9.206;2024-02-04T02:06:44;7.10;99.90
16995;DHT22;8614;48.522;9.206;2024-02-04T02:09:12;7.20;99.90
16995;DHT22;8614;48.522;9.206;2024-02-04T02:11:41;7.10;99.90
16995;DHT22;8614;48.522;9.206;2024-02-04T02:14:13;7.20;99.90
16995;DHT22;8614;48.522;9.206;2024-02-04T02:16:41;7.20;99.90
16995;DHT22;8614;48.522;9.206;2024-02-04T02:19:26;7.20;99.90
16995;DHT22;8614;48.522;9.206;2024-02-04T02:22:04;7.30;99.90
16995;DHT22;8614;48.522;9.206;2024-02-04T02:24:35;7.30;99.90
16995;DHT22;8614;48.522;9.206;2024-02-04T02:27:04;7.30;99.90
16995;DHT22;8614;48.522;9.206;2024-02-04T02:29:31;7.30;99.90
16995;DHT22;8614;48.522;9.206;2024-02-04T02:31:59;7.30;99.90
16995;DHT22;8614;48.522;9.206;2024-02-04T02:34:28;7.30;99.90
16995;DHT22;8614;48.522;9.206;2024-02-04T02:37:00;7.30;99.90
16995;DHT22;8614;48.522;9.206;2024-02-04T02:39:33;7.30;99.90
16995;DHT22;8614;48.522;9.206;2024-02-04T02:42:03;7.30;99.90
16995;DHT22;8614;48.522;9.206;2024-02-04T02:44:31;7.30;99.90
16995;DHT22;8614;48.522;9.206;2024-02-04T02:47:00;7.30;99.90
16995;DHT22;8614;48.522;9.206;2024-02-04T02:49:28;7.30;99.90
16995;DHT22;8614;48.522;9.206;2024-02-04T02:51:55;7.30;99.90
16995;DHT22;8614;48.522;9.206;2024-02-04T02:54:21;7.30;99.90
16995;DHT22;8614;48.522;9.206;2024-02-04T02:56:48;7.30;99.90
16995;DHT22;8614;48.522;9.206;2024-02-04T02:59:17;7.20;99.90
16995;DHT22;8614;48.522;9.206;2024-02-04T03:01:44;7.20;99.90
16995;DHT22;8614;48.522;9.206;2024-02-04T03:04:29;7.20;99.90
16995;DHT22;8614;48.522;9.206;2024-02-04T03:06:56;7.20;99.90
16995;DHT22;8614;48.522;9.206;2024-02-04T03:09:23;7.20;99.90
16995;DHT22;8614;48.522;9.206;2024-02-04T03:11:50;7.20;99.90
16995;DHT22;8614;48.522;9.206;2024-02-04T03:14:19;7.30;99.90
16995;DHT22;8614;48.522;9.206;2024-02-04T03:16:46;7.30;99.90
16995;DHT22;8614;48.522;9.206;2024-02-04T03:19:13;7.30;99.90
16995;DHT22;8614;48.522;9.206;2024-02-04T03:21:40;7.30;99.90
16995;DHT22;8614;48.522;9.206;2024-02-04T03:24:07;7.30;99.90
16995;DHT22;8614;48.522;9.206;2024-02-04T03:26:34;7.30;99.90
16995;DHT22;8614;48.522;9.206;2024-02-04T03:29:01;7.30;99.90
16995;DHT22;8614;48.522;9.206;2024-02-04T03:31:31;7.30;99.90
16995;DHT22;8614;48.522;9.206;2024-02-04T03:33:59;7.40;99.90
16995;DHT22;8614;48.522;9.206;2024-02-04T03:36:26;7.40;99.90
16995;DHT22;8614;48.522;9.206;2024-02-04T03:38:53;7.40;99.90
16995;DHT22;8614;48.522;9.206;2024-02-04T03:41:20;7.40;99.90
16995;DHT22;8614;48.522;9.206;2024-02-04T03:43:47;7.40;99.90
16995;DHT22;8614;48.522;9.206;2024-02-04T03:46:14;7.40;99.90
16995;DHT22;8614;48.522;9.206;2024-02-04T03:48:43;7.40;99.90
16995;DHT22;8614;48.522;9.206;2024-02-04T03:51:15;7.40;99.90
16995;DHT22;8614;48.522;9.206;2024-02-04T03:53:42;7.50;99.90
16995;DHT22;8614;48.522;9.206;2024-02-04T03:56:09;7.50;99.90
16995;DHT22;8614;48.522;9.206;2024-02-04T03:58:37;7.40;99.90
16995;DHT22;8614;48.522;9.206;2024-02-04T04:01:04;7.40;99.90
16995;DHT22;8614;48.522;9.206;2024-02-04T04:03:30;7.50;99.90
16995;DHT22;8614;48.522;9.206;2024-02-04T04:05:59;7.50;99.90
16995;DHT22;8614;48.522;9.206;2024-02-04T04:08:25;7.40;99.90
16995;DHT22;8614;48.522;9.206;2024-02-04T04:10:52;7.40;99.90
16995;DHT22;8614;48.522;9.206;2024-02-04T04:13:19;7.50;99.90
16995;DHT22;8614;48.522;9.206;2024-02-04T04:15:46;7.40;99.90
16995;DHT22;8614;48.522;9.206;2024-02-04T04:18:12;7.40;99.90
16995;DHT22;8614;48.522;9.206;2024-02-04T04:20:40;7.40;99.90
16995;DHT22;8614;48.522;9.206;2024-02-04T04:23:08;7.40;99.90
16995;DHT22;8614;48.522;9.206;2024-02-04T04:25:35;7.40;99.90
16995;DHT22;8614;48.522;9.206;2024-02-04T04:28:02;7.40;99.90
16995;DHT22;8614;48.522;9.206;2024-02-04T04:30:28;7.40;99.90
16995;DHT22;8614;48.522;9.206;2024-02-04T04:32:56;7.40;99.90
16995;DHT22;8614;48.522;9.206;2024-02-04T04:35:23;7.40;99.90
16995;DHT22;8614;48.522;9.206;2024-02-04T04:37:50;7.30;99.90
16995;DHT22;8614;48.522;9.206;2024-02-04T04:40:19;7.30;99.90
16995;DHT22;8614;48.522;9.206;2024-02-04T04:42:46;7.30;99.90
16995;DHT22;8614;48.522;9.206;2024-02-04T04:45:13;7.30;99.90
16995;DHT22;8614;48.522;9.206;2024-02-04T04:47:40;7.30;99.90
16995;DHT22;8614;48.522;9.206;2024-02-04T04:50:07;7.20;99.90
16995;DHT22;8614;48.522;9.206;2024-02-04T04:52:34;7.20;99.90
16995;DHT22;8614;48.522;9.206;2024-02-04T04:55:01;7.20;99.90
16995;DHT22;8614;48.522;9.206;2024-02-04T04:57:29;7.10;99.90
16995;DHT22;8614;48.522;9.206;2024-02-04T04:59:56;7.10;99.90
16995;DHT22;8614;48.522;9.206;2024-02-04T05:02:24;7.10;99.90
16995;DHT22;8614;48.522;9.206;2024-02-04T05:04:51;7.10;99.90
16995;DHT22;8614;48.522;9.206;2024-02-04T05:07:18;7.00;99.90
16995;DHT22;8614;48.522;9.206;2024-02-04T05:09:44;7.00;99.90
16995;DHT22;8614;48.522;9.206;2024-02-04T05:12:11;7.00;99.90
16995;DHT22;8614;48.522;9.206;2024-02-04T05:14:40;7.00;99.90
16995;DHT22;8614;48.522;9.206;2024-02-04T05:17:06;7.00;99.90
16995;DHT22;8614;48.522;9.206;2024-02-04T05:19:35;7.00;99.90
16995;DHT22;8614;48.522;9.206;2024-02-04T05:22:02;6.90;99.90
16995;DHT22;8614;48.522;9.206;2024-02-04T05:24:28;6.90;99.90
16995;DHT22;8614;48.522;9.206;2024-02-04T05:26:55;6.90;99.90
16995;DHT22;8614;48.522;9.206;2024-02-04T05:29:22;6.90;99.90
16995;DHT22;8614;48.522;9.206;2024-02-04T05:31:50;7.00;99.90
16995;DHT22;8614;48.522;9.206;2024-02-04T05:34:18;7.00;99.90
16995;DHT22;8614;48.522;9.206;2024-02-04T05:36:44;7.00;99.90
16995;DHT22;8614;48.522;9.206;2024-02-04T05:39:11;7.10;99.90
16995;DHT22;8614;48.522;9.206;2024-02-04T05:41:39;7.10;99.90
16995;DHT22;8614;48.522;9.206;2024-02-04T05:44:06;7.10;99.90
16995;DHT22;8614;48.522;9.206;2024-02-04T05:46:34;7.10;99.90
16995;DHT22;8614;48.522;9.206;2024-02-04T05:49:02;7.10;99.90
16995;DHT22;8614;48.522;9.206;2024-02-04T05:51:31;7.10;99.90
16995;DHT22;8614;48.522;9.206;2024-02-04T05:53:58;7.10;99.90
16995;DHT22;8614;48.522;9.206;2024-02-04T05:56:25;7.20;99.90
16995;DHT22;8614;48.522;9.206;2024-02-04T05:58:52;7.20;99.90
16995;DHT22;8614;48.522;9.206;2024-02-04T06:01:19;7.20;99.90
16995;DHT22;8614;48.522;9.206;2024-02-04T06:03:46;7.20;99.90
16995;DHT22;8614;48.522;9.206;2024-02-04T06:06:16;7.20;99.90
16995;DHT22;8614;48.522;9.206;2024-02-04T06:08:45;7.20;99.90
16995;DHT22;8614;48.522;9.206;2024-02-04T06:11:12;7.20;99.90
16995;DHT22;8614;48.522;9.206;2024-02-04T06:13:40;7.20;99.90
16995;DHT22;8614;48.522;9.206;2024-02-04T06:16:07;7.20;99.90
16995;DHT22;8614;48.522;9.206;2024-02-04T06:18:35;7.20;99.90
16995;DHT22;8614;48.522;9.206;2024-02-04T06:21:03;7.20;99.90
16995;DHT22;8614;48.522;9.206;2024-02-04T06:23:31;7.20;99.90
16995;DHT22;8614;48.522;9.206;2024-02-04T06:25:58;7.20;99.90
16995;DHT22;8614;48.522;9.206;2024-02-04T06:28:25;7.20;99.90
16995;DHT22;8614;48.522;9.206;2024-02-04T06:30:51;7.20;99.90
16995;DHT22;8614;48.522;9.206;2024-02-04T06:33:19;7.20;99.90
16995;DHT22;8614;48.522;9.206;2024-02-04T06:35:46;7.20;99.90
16995;DHT22;8614;48.522;9.206;2024-02-04T06:38:13;7.20;99.90
16995;DHT22;8614;48.522;9.206;2024-02-04T06:40:41;7.20;99.90
16995;DHT22;8614;48.522;9.206;2024-02-04T06:43:08;7.20;99.90
16995;DHT22;8614;48.522;9.206;2024-02-04T06:45:35;7.20;99.90
16995;DHT22;8614;48.522;9.206;2024-02-04T06:48:02;7.20;99.90
16995;DHT22;8614;48.522;9.206;2024-02-04T06:50:29;7.20;99.90
16995;DHT22;8614;48.522;9.206;2024-02-04T06:52:56;7.20;99.90
16995;DHT22;8614;48.522;9.206;2024-02-04T06:55:22;7.20;99.90
16995;DHT22;8614;48.522;9.206;2024-02-04T06:57:50;7.20;99.90
16995;DHT22;8614;48.522;9.206;2024-02-04T07:00:17;7.10;99.90
16995;DHT22;8614;48.522;9.206;2024-02-04T07:02:45;7.20;99.90
16995;DHT22;8614;48.522;9.206;2024-02-04T07:05:12;7.20;99.90
16995;DHT22;8614;48.522;9.206;2024-02-04T07:07:41;7.20;99.90
16995;DHT22;8614;48.522;9.206;2024-02-04T07:10:08;7.20;99.90
16995;DHT22;8614;48.522;9.206;2024-02-04T07:12:35;7.20;99.90
16995;DHT22;8614;48.522;9.206;2024-02-04T07:15:03;7.30;99.90
16995;DHT22;8614;48.522;9.206;2024-02-04T07:17:30;7.30;99.90
16995;DHT22;8614;48.522;9.206;2024-02-04T07:19:57;7.30;99.90
16995;DHT22;8614;48.522;9.206;2024-02-04T07:22:24;7.40;99.90
16995;DHT22;8614;48.522;9.206;2024-02-04T07:24:51;7.40;99.90
16995;DHT22;8614;48.522;9.206;2024-02-04T07:27:18;7.40;99.90
16995;DHT22;8614;48.522;9.206;2024-02-04T07:29:44;7.40;99.90
16995;DHT22;8614;48.522;9.206;2024-02-04T07:32:14;7.40;99.90
16995;DHT22;8614;48.522;9.206;2024-02-04T07:34:41;7.50;99.90
16995;DHT22;8614;48.522;9.206;2024-02-04T07:37:08;7.60;99.90
16995;DHT22;8614;48.522;9.206;2024-02-04T07:39:35;7.60;99.90
16995;DHT22;8614;48.522;9.206;2024-02-04T07:42:01;7.60;99.90
16995;DHT22;8614;48.522;9.206;2024-02-04T07:44:28;7.70;99.90
16995;DHT22;8614;48.522;9.206;2024-02-04T07:46:55;7.80;99.90
16995;DHT22;8614;48.522;9.206;2024-02-04T07:49:23;7.80;99.90
16995;DHT22;8614;48.522;9.206;2024-02-04T07:51:50;7.80;99.90
16995;DHT22;8614;48.522;9.206;2024-02-04T07:54:17;7.90;99.90
16995;DHT22;8614;48.522;9.206;2024-02-04T07:56:44;7.90;99.90
16995;DHT22;8614;48.522;9.206;2024-02-04T07:59:11;7.90;99.90
16995;DHT22;8614;48.522;9.206;2024-02-04T08:01:41;7.90;99.90
16995;DHT22;8614;48.522;9.206;2024-02-04T08:04:07;7.90;99.90
16995;DHT22;8614;48.522;9.206;2024-02-04T08:06:37;7.90;99.90
16995;DHT22;8614;48.522;9.206;2024-02-04T08:09:04;8.00;99.90
16995;DHT22;8614;48.522;9.206;2024-02-04T08:11:32;7.90;99.90
16995;DHT22;8614;48.522;9.206;2024-02-04T08:13:58;8.00;99.90
16995;DHT22;8614;48.522;9.206;2024-02-04T08:16:25;8.00;99.90
16995;DHT22;8614;48.522;9.206;2024-02-04T08:18:52;8.00;99.90
16995;DHT22;8614;48.522;9.206;2024-02-04T08:21:19;8.00;99.90
16995;DHT22;8614;48.522;9.206;2024-02-04T08:23:47;8.10;99.90
16995;DHT22;8614;48.522;9.206;2024-02-04T08:26:14;8.20;99.90
16995;DHT22;8614;48.522;9.206;2024-02-04T08:28:41;8.20;99.90
16995;DHT22;8614;48.522;9.206;2024-02-04T08:31:07;8.30;99.90
16995;DHT22;8614;48.522;9.206;2024-02-04T08:33:34;8.30;99.90
16995;DHT22;8614;48.522;9.206;2024-02-04T08:36:01;8.40;99.90
16995;DHT22;8614;48.522;9.206;2024-02-04T08:38:28;8.40;99.90
16995;DHT22;8614;48.522;9.206;2024-02-04T08:40:56;8.50;99.90
16995;DHT22;8614;48.522;9.206;2024-02-04T08:43:23;8.50;99.90
16995;DHT22;8614;48.522;9.206;2024-02-04T08:45:49;8.50;99.90
16995;DHT22;8614;48.522;9.206;2024-02-04T08:48:16;8.70;99.90
16995;DHT22;8614;48.522;9.206;2024-02-04T08:50:43;8.70;99.90
16995;DHT22;8614;48.522;9.206;2024-02-04T08:53:10;8.80;99.90
16995;DHT22;8614;48.522;9.206;2024-02-04T08:55:37;8.90;99.90
16995;DHT22;8614;48.522;9.206;2024-02-04T08:58:05;8.90;99.90
16995;DHT22;8614;48.522;9.206;2024-02-04T09:00:32;9.00;99.90
16995;DHT22;8614;48.522;9.206;2024-02-04T09:02:58;9.00;99.90
16995;DHT22;8614;48.522;9.206;2024-02-04T09:05:25;9.00;99.90
16995;DHT22;8614;48.522;9.206;2024-02-04T09:07:52;9.20;99.90
16995;DHT22;8614;48.522;9.206;2024-02-04T09:10:20;9.20;99.90
16995;DHT22;8614;48.522;9.206;2024-02-04T09:12:47;9.30;99.90
16995;DHT22;8614;48.522;9.206;2024-02-04T09:15:15;9.30;99.90
16995;DHT22;8614;48.522;9.206;2024-02-04T09:17:42;9.40;99.90
16995;DHT22;8614;48.522;9.206;2024-02-04T09:20:10;9.40;99.90
16995;DHT22;8614;48.522;9.206;2024-02-04T09:22:37;9.50;99.90
16995;DHT22;8614;48.522;9.206;2024-02-04T09:25:05;9.50;99.90
16995;DHT22;8614;48.522;9.206;2024-02-04T09:27:32;9.60;99.90
16995;DHT22;8614;48.522;9.206;2024-02-04T09:29:59;9.60;99.90
16995;DHT22;8614;48.522;9.206;2024-02-04T09:32:27;9.60;99.90
16995;DHT22;8614;48.522;9.206;2024-02-04T09:34:54;9.60;99.90
16995;DHT22;8614;48.522;9.206;2024-02-04T09:37:21;9.70;99.90
16995;DHT22;8614;48.522;9.206;2024-02-04T09:39:47;9.80;99.90
16995;DHT22;8614;48.522;9.206;2024-02-04T09:42:19;10.00;99.90
16995;DHT22;8614;48.522;9.206;2024-02-04T09:44:47;10.10;99.90
16995;DHT22;8614;48.522;9.206;2024-02-04T09:47:14;10.20;99.90
16995;DHT22;8614;48.522;9.206;2024-02-04T09:49:42;10.30;99.90
16995;DHT22;8614;48.522;9.206;2024-02-04T09:52:10;10.40;99.90
16995;DHT22;8614;48.522;9.206;2024-02-04T09:54:42;10.40;99.90
16995;DHT22;8614;48.522;9.206;2024-02-04T09:57:10;10.50;99.90
16995;DHT22;8614;48.522;9.206;2024-02-04T09:59:37;10.70;99.90
16995;DHT22;8614;48.522;9.206;2024-02-04T10:02:05;10.70;99.90
16995;DHT22;8614;48.522;9.206;2024-02-04T10:04:33;10.70;99.90
16995;DHT22;8614;48.522;9.206;2024-02-04T10:07:01;10.80;99.90
16995;DHT22;8614;48.522;9.206;2024-02-04T10:09:28;10.70;99.90
16995;DHT22;8614;48.522;9.206;2024-02-04T10:11:56;10.60;99.90
16995;DHT22;8614;48.522;9.206;2024-02-04T10:14:23;10.60;99.90
16995;DHT22;8614;48.522;9.206;2024-02-04T10:16:50;10.50;99.90
16995;DHT22;8614;48.522;9.206;2024-02-04T10:19:16;10.60;99.90
16995;DHT22;8614;48.522;9.206;2024-02-04T10:21:43;10.60;99.90
16995;DHT22;8614;48.522;9.206;2024-02-04T10:24:11;10.60;99.90
16995;DHT22;8614;48.522;9.206;2024-02-04T10:26:38;10.70;99.90
16995;DHT22;8614;48.522;9.206;2024-02-04T10:29:08;10.70;99.90
16995;DHT22;8614;48.522;9.206;2024-02-04T10:31:35;10.80;99.90
16995;DHT22;8614;48.522;9.206;2024-02-04T10:34:02;11.10;99.90
16995;DHT22;8614;48.522;9.206;2024-02-04T10:36:30;11.40;99.90
16995;DHT22;8614;48.522;9.206;2024-02-04T10:38:57;11.60;99.90
16995;DHT22;8614;48.522;9.206;2024-02-04T10:41:26;11.70;99.90
16995;DHT22;8614;48.522;9.206;2024-02-04T10:43:56;11.70;99.90
16995;DHT22;8614;48.522;9.206;2024-02-04T10:46:27;11.70;99.90
16995;DHT22;8614;48.522;9.206;2024-02-04T10:48:59;11.70;99.90
16995;DHT22;8614;48.522;9.206;2024-02-04T10:51:27;11.80;99.90
16995;DHT22;8614;48.522;9.206;2024-02-04T10:53:54;11.80;99.90
16995;DHT22;8614;48.522;9.206;2024-02-04T10:56:29;11.90;99.90
16995;DHT22;8614;48.522;9.206;2024-02-04T10:58:57;11.70;99.90
16995;DHT22;8614;48.522;9.206;2024-02-04T11:01:26;11.70;99.90
16995;DHT22;8614;48.522;9.206;2024-02-04T11:03:53;11.80;99.90
16995;DHT22;8614;48.522;9.206;2024-02-04T11:06:21;11.90;99.90
16995;DHT22;8614;48.522;9.206;2024-02-04T11:08:48;12.00;99.90
16995;DHT22;8614;48.522;9.206;2024-02-04T11:11:16;11.90;99.90
16995;DHT22;8614;48.522;9.206;2024-02-04T11:13:45;12.00;99.90
16995;DHT22;8614;48.522;9.206;2024-02-04T11:16:21;11.90;99.90
16995;DHT22;8614;48.522;9.206;2024-02-04T11:18:58;11.80;99.90
16995;DHT22;8614;48.522;9.206;2024-02-04T11:21:44;11.70;99.90
16995;DHT22;8614;48.522;9.206;2024-02-04T11:24:27;11.50;99.90
16995;DHT22;8614;48.522;9.206;2024-02-04T11:26:55;11.50;99.90
16995;DHT22;8614;48.522;9.206;2024-02-04T11:29:25;11.50;99.90
16995;DHT22;8614;48.522;9.206;2024-02-04T11:31:52;11.60;99.90
16995;DHT22;8614;48.522;9.206;2024-02-04T11:34:19;11.60;99.90
16995;DHT22;8614;48.522;9.206;2024-02-04T11:36:46;11.60;99.90
16995;DHT22;8614;48.522;9.206;2024-02-04T11:39:13;11.70;99.90
16995;DHT22;8614;48.522;9.206;2024-02-04T11:41:47;11.80;99.90
16995;DHT22;8614;48.522;9.206;2024-02-04T11:44:20;11.90;99.90
16995;DHT22;8614;48.522;9.206;2024-02-04T11:46:48;11.90;99.90
16995;DHT22;8614;48.522;9.206;2024-02-04T11:49:15;12.00;99.90
16995;DHT22;8614;48.522;9.206;2024-02-04T11:51:45;12.00;99.90
16995;DHT22;8614;48.522;9.206;2024-02-04T11:54:15;12.20;99.90
16995;DHT22;8614;48.522;9.206;2024-02-04T11:56:42;12.30;99.90
16995;DHT22;8614;48.522;9.206;2024-02-04T11:59:09;12.40;99.90
16995;DHT22;8614;48.522;9.206;2024-02-04T12:01:38;12.50;99.90
16995;DHT22;8614;48.522;9.206;2024-02-04T12:04:13;12.50;99.90
16995;DHT22;8614;48.522;9.206;2024-02-04T12:06:41;12.70;99.90
16995;DHT22;8614;48.522;9.206;2024-02-04T12:09:08;12.80;99.90
16995;DHT22;8614;48.522;9.206;2024-02-04T12:11:36;12.90;99.90
16995;DHT22;8614;48.522;9.206;2024-02-04T12:14:03;13.00;99.90
16995;DHT22;8614;48.522;9.206;2024-02-04T12:16:31;13.20;99.90
16995;DHT22;8614;48.522;9.206;2024-02-04T12:18:58;13.30;99.90
16995;DHT22;8614;48.522;9.206;2024-02-04T12:21:26;13.30;99.90
16995;DHT22;8614;48.522;9.206;2024-02-04T12:23:54;13.20;99.90
16995;DHT22;8614;48.522;9.206;2024-02-04T12:26:21;13.10;99.90
16995;DHT22;8614;48.522;9.206;2024-02-04T12:28:48;13.10;99.90
16995;DHT22;8614;48.522;9.206;2024-02-04T12:31:17;13.00;99.90
16995;DHT22;8614;48.522;9.206;2024-02-04T12:33:52;13.10;99.90
16995;DHT22;8614;48.522;9.206;2024-02-04T12:36:20;13.10;99.90
16995;DHT22;8614;48.522;9.206;2024-02-04T12:38:52;13.00;99.90
16995;DHT22;8614;48.522;9.206;2024-02-04T12:41:19;13.10;99.90
16995;DHT22;8614;48.522;9.206;2024-02-04T12:43:49;13.10;99.90
16995;DHT22;8614;48.522;9.206;2024-02-04T12:46:16;13.10;99.90
16995;DHT22;8614;48.522;9.206;2024-02-04T12:48:43;13.10;99.90
16995;DHT22;8614;48.522;9.206;2024-02-04T12:51:10;13.00;99.90
16995;DHT22;8614;48.522;9.206;2024-02-04T12:53:37;13.00;99.90
16995;DHT22;8614;48.522;9.206;2024-02-04T12:56:06;12.80;99.90
16995;DHT22;8614;48.522;9.206;2024-02-04T12:58:42;12.70;99.90
16995;DHT22;8614;48.522;9.206;2024-02-04T13:01:09;12.70;99.90
16995;DHT22;8614;48.522;9.206;2024-02-04T13:03:36;12.60;99.90
16995;DHT22;8614;48.522;9.206;2024-02-04T13:06:03;12.60;99.90
16995;DHT22;8614;48.522;9.206;2024-02-04T13:08:30;12.60;99.90
16995;DHT22;8614;48.522;9.206;2024-02-04T13:10:57;12.60;99.90
16995;DHT22;8614;48.522;9.206;2024-02-04T13:13:25;12.60;99.90
16995;DHT22;8614;48.522;9.206;2024-02-04T13:15:54;12.50;99.90
16995;DHT22;8614;48.522;9.206;2024-02-04T13:18:21;12.50;99.90
16995;DHT22;8614;48.522;9.206;2024-02-04T13:20:48;12.50;99.90
16995;DHT22;8614;48.522;9.206;2024-02-04T13:23:15;12.50;99.90
16995;DHT22;8614;48.522;9.206;2024-02-04T13:25:42;12.60;99.90
16995;DHT22;8614;48.522;9.206;2024-02-04T13:28:09;12.70;99.90
16995;DHT22;8614;48.522;9.206;2024-02-04T13:30:38;12.80;99.90
16995;DHT22;8614;48.522;9.206;2024-02-04T13:33:04;12.90;99.90
16995;DHT22;8614;48.522;9.206;2024-02-04T13:35:31;13.10;99.90
16995;DHT22;8614;48.522;9.206;2024-02-04T13:37:58;13.20;99.90
16995;DHT22;8614;48.522;9.206;2024-02-04T13:40:25;13.20;99.90
16995;DHT22;8614;48.522;9.206;2024-02-04T13:42:52;13.30;99.90
16995;DHT22;8614;48.522;9.206;2024-02-04T13:45:19;13.20;99.90
16995;DHT22;8614;48.522;9.206;2024-02-04T13:47:48;13.20;99.90
16995;DHT22;8614;48.522;9.206;2024-02-04T13:50:15;13.20;99.90
16995;DHT22;8614;48.522;9.206;2024-02-04T13:52:41;13.10;99.90
16995;DHT22;8614;48.522;9.206;2024-02-04T13:55:08;13.10;99.90
16995;DHT22;8614;48.522;9.206;2024-02-04T13:57:35;13.10;99.90
16995;DHT22;8614;48.522;9.206;2024-02-04T14:00:03;13.10;99.90
16995;DHT22;8614;48.522;9.206;2024-02-04T14:02:30;13.10;99.90
16995;DHT22;8614;48.522;9.206;2024-02-04T14:04:58;13.10;99.90
16995;DHT22;8614;48.522;9.206;2024-02-04T14:07:26;13.00;99.90
16995;DHT22;8614;48.522;9.206;2024-02-04T14:09:53;12.90;99.90
16995;DHT22;8614;48.522;9.206;2024-02-04T14:12:20;12.90;99.90
16995;DHT22;8614;48.522;9.206;2024-02-04T14:14:46;12.90;99.90
16995;DHT22;8614;48.522;9.206;2024-02-04T14:17:13;12.80;99.90
16995;DHT22;8614;48.522;9.206;2024-02-04T14:19:40;12.80;99.90
16995;DHT22;8614;48.522;9.206;2024-02-04T14:22:08;12.70;99.90
16995;DHT22;8614;48.522;9.206;2024-02-04T14:24:35;12.70;99.90
16995;DHT22;8614;48.522;9.206;2024-02-04T14:27:02;12.70;99.90
16995;DHT22;8614;48.522;9.206;2024-02-04T14:29:28;12.70;99.90
16995;DHT22;8614;48.522;9.206;2024-02-04T14:31:55;12.60;99.90
16995;DHT22;8614;48.522;9.206;2024-02-04T14:34:23;12.60;99.90
16995;DHT22;8614;48.522;9.206;2024-02-04T14:36:50;12.60;99.90
16995;DHT22;8614;48.522;9.206;2024-02-04T14:39:18;12.60;99.90
16995;DHT22;8614;48.522;9.206;2024-02-04T14:41:45;12.50;99.90
16995;DHT22;8614;48.522;9.206;2024-02-04T14:44:12;12.50;99.90
16995;DHT22;8614;48.522;9.206;2024-02-04T14:46:39;12.50;99.90
16995;DHT22;8614;48.522;9.206;2024-02-04T14:49:07;12.40;99.90
16995;DHT22;8614;48.522;9.206;2024-02-04T14:51:37;12.30;99.90
16995;DHT22;8614;48.522;9.206;2024-02-04T14:54:04;12.30;99.90
16995;DHT22;8614;48.522;9.206;2024-02-04T14:56:37;12.30;99.90
16995;DHT22;8614;48.522;9.206;2024-02-04T14:59:04;12.30;99.90
16995;DHT22;8614;48.522;9.206;2024-02-04T15:01:31;12.20;99.90
16995;DHT22;8614;48.522;9.206;2024-02-04T15:03:58;12.10;99.90
16995;DHT22;8614;48.522;9.206;2024-02-04T15:06:25;12.00;99.90
16995;DHT22;8614;48.522;9.206;2024-02-04T15:08:52;11.90;99.90
16995;DHT22;8614;48.522;9.206;2024-02-04T15:11:19;11.90;99.90
16995;DHT22;8614;48.522;9.206;2024-02-04T15:13:48;11.80;99.90
16995;DHT22;8614;48.522;9.206;2024-02-04T15:16:15;11.80;99.90
16995;DHT22;8614;48.522;9.206;2024-02-04T15:18:43;11.80;99.90
16995;DHT22;8614;48.522;9.206;2024-02-04T15:21:11;11.70;99.90
16995;DHT22;8614;48.522;9.206;2024-02-04T15:23:38;11.60;99.90
16995;DHT22;8614;48.522;9.206;2024-02-04T15:26:07;11.60;99.90
16995;DHT22;8614;48.522;9.206;2024-02-04T15:28:34;11.50;99.90
16995;DHT22;8614;48.522;9.206;2024-02-04T15:31:03;11.50;99.90
16995;DHT22;8614;48.522;9.206;2024-02-04T15:33:30;11.50;99.90
16995;DHT22;8614;48.522;9.206;2024-02-04T15:35:57;11.40;99.90
16995;DHT22;8614;48.522;9.206;2024-02-04T15:38:24;11.40;99.90
16995;DHT22;8614;48.522;9.206;2024-02-04T15:40:52;11.40;99.90
16995;DHT22;8614;48.522;9.206;2024-02-04T15:43:19;11.40;99.90
16995;DHT22;8614;48.522;9.206;2024-02-04T15:45:46;11.30;99.90
16995;DHT22;8614;48.522;9.206;2024-02-04T15:48:18;11.30;99.90
16995;DHT22;8614;48.522;9.206;2024-02-04T15:50:45;11.20;99.90
16995;DHT22;8614;48.522;9.206;2024-02-04T15:53:12;11.20;99.90
16995;DHT22;8614;48.522;9.206;2024-02-04T15:55:39;11.20;99.90
16995;DHT22;8614;48.522;9.206;2024-02-04T15:58:06;11.10;99.90